Startpagina
METAR-TAF:

METAR-TAF

Vliegvelden :

Funafuti, Tuvalu

breedte: 08-31S, lengte: 179-13E, hoogte: 1 m

Actueel weer

Dit bericht is 1 uur en het 1 minuten geleden gemaakt, om 01:00 UTC
Wind 5 kt uit het noordnoordoosten
Temperatuur 27°C
Vochtigheid 89%
Druk 1009 hPa
Zicht 10 km of meer
Weinig wolken op 1900 ft, Stapelwolken.
Gebroken wolken op 11000 ft

METAR: NGFU 230100Z 03005KT 9999 FEW019TCU BKN110 27/25 Q1009

Tijdstip: 14:01 (02:01 UTC)

Verwachting

Dit bericht is 2 uur en het 36 minuten geleden gemaakt, om 23:25 UTC
Verwachting geldig van 23 om 00 UTC tot 23 om 24 UTC
Wind 8 kt uit het oosten
Zicht 10 km of meer
Verspreide wolken op 1800 ft
Gebroken wolken op 10000 ft
lichte regenbuien
Kans 30% :
Tijdelijke
van 23 om 00 UTC tot 23 om 12 UTC
Zicht: 5000 m
Verspreide wolken op 1800 ft, Cumulonimbus.
onweer, regen

TAF: NGFU 222325Z 2300/2324 09008KT 9999 -SHRA SCT018 BKN100 PROB30 TEMPO 2300/2312 5000 TSRA SCT018CB

Waarnemingen en weersverwachtingen van meer dan 4000 vliegvelden (METAR en TAF).

De beschikbare stations zijn de gele en rode punten op de kaart.

Ga met uw muis naar het station om de naam te zien.

Klik dan om waarnemingen en weersverwachtingen te zien.

kaart wijzigen: klik op de groene knoppen met een zwart kruis om in te zoomen, op de groene knop met een streepje om uit te zoomen of op de groene pijlen voor aangrenzende kaarten.


METAR-TAF: